createdAt,value
2018-08-20T00:01:44.922Z,6.20
2018-08-20T00:04:13.612Z,7.15
2018-08-20T00:06:52.490Z,7.08
2018-08-20T00:09:21.971Z,7.17
2018-08-20T00:11:50.198Z,7.20
2018-08-20T00:14:20.900Z,6.35
2018-08-20T00:16:49.294Z,7.25
2018-08-20T00:19:18.029Z,6.83
2018-08-20T00:21:46.337Z,6.40
2018-08-20T00:24:14.596Z,5.92
2018-08-20T00:26:42.887Z,5.87
2018-08-20T00:29:11.153Z,6.87
2018-08-20T00:31:39.539Z,6.37
2018-08-20T00:34:07.861Z,6.12
2018-08-20T00:36:36.373Z,6.45
2018-08-20T00:39:06.841Z,6.37
2018-08-20T00:41:35.117Z,6.03
2018-08-20T00:44:07.582Z,6.25
2018-08-20T00:46:35.855Z,6.22
2018-08-20T00:49:04.547Z,6.37
2018-08-20T00:51:33.505Z,5.75
2018-08-20T00:54:02.476Z,5.97
2018-08-20T00:56:30.877Z,5.80
2018-08-20T00:58:59.157Z,6.15
2018-08-20T01:01:27.829Z,5.78
2018-08-20T01:03:56.102Z,6.45
2018-08-20T01:06:24.937Z,5.87
2018-08-20T01:08:53.212Z,5.50
2018-08-20T01:11:21.491Z,6.28
2018-08-20T01:13:50.254Z,6.22
2018-08-20T01:16:18.537Z,5.65
2018-08-20T01:18:47.447Z,6.53
2018-08-20T01:21:15.721Z,6.33
2018-08-20T01:23:44.073Z,6.17
2018-08-20T01:26:12.342Z,6.55
2018-08-20T01:28:40.599Z,5.80
2018-08-20T01:31:09.038Z,6.40
2018-08-20T01:33:37.468Z,6.45
2018-08-20T01:36:06.074Z,6.62
2018-08-20T01:38:34.332Z,6.55
2018-08-20T01:41:02.650Z,6.37
2018-08-20T01:43:30.979Z,6.40
2018-08-20T01:45:59.230Z,6.50
2018-08-20T01:48:27.582Z,6.42
2018-08-20T01:50:55.858Z,6.45
2018-08-20T01:53:24.451Z,6.00
2018-08-20T01:55:53.287Z,6.55
2018-08-20T01:58:21.552Z,6.30
2018-08-20T02:00:58.030Z,6.58
2018-08-20T02:03:26.375Z,6.20
2018-08-20T02:05:55.245Z,6.10
2018-08-20T02:08:23.493Z,6.80
2018-08-20T02:10:51.770Z,6.40
2018-08-20T02:13:20.330Z,7.12
2018-08-20T02:15:48.968Z,6.85
2018-08-20T02:18:17.721Z,6.80
2018-08-20T02:20:45.973Z,6.83
2018-08-20T02:23:14.226Z,7.40
2018-08-20T02:25:42.637Z,7.10
2018-08-20T02:28:10.912Z,6.25
2018-08-20T02:30:39.573Z,6.20
2018-08-20T02:33:08.961Z,6.33
2018-08-20T02:35:37.232Z,6.20
2018-08-20T02:38:05.522Z,6.22
2018-08-20T02:40:34.122Z,6.75
2018-08-20T02:43:02.377Z,6.20
2018-08-20T02:45:30.730Z,6.00
2018-08-20T02:47:59.001Z,6.40
2018-08-20T02:50:27.209Z,6.62
2018-08-20T02:52:56.229Z,6.30
2018-08-20T02:55:24.518Z,6.70
2018-08-20T02:57:52.797Z,6.08
2018-08-20T03:00:21.138Z,6.10
2018-08-20T03:02:50.002Z,5.85
2018-08-20T03:05:18.712Z,6.45
2018-08-20T03:07:47.122Z,6.42
2018-08-20T03:10:15.409Z,7.00
2018-08-20T03:12:43.750Z,6.67
2018-08-20T03:15:12.490Z,5.97
2018-08-20T03:17:41.477Z,5.85
2018-08-20T03:20:10.051Z,5.80
2018-08-20T03:22:38.329Z,6.67
2018-08-20T03:25:06.998Z,6.62
2018-08-20T03:27:35.454Z,6.17
2018-08-20T03:30:05.291Z,6.90
2018-08-20T03:32:34.119Z,6.45
2018-08-20T03:35:02.364Z,6.45
2018-08-20T03:37:30.621Z,6.45
2018-08-20T03:39:58.906Z,6.75
2018-08-20T03:42:27.181Z,6.80
2018-08-20T03:44:55.526Z,7.12
2018-08-20T03:47:23.784Z,6.75
2018-08-20T03:49:52.105Z,7.15
2018-08-20T03:52:20.365Z,6.70
2018-08-20T03:54:49.338Z,6.30
2018-08-20T03:57:17.589Z,6.50
2018-08-20T03:59:45.839Z,6.58
2018-08-20T04:02:14.720Z,6.72
2018-08-20T04:04:44.064Z,6.78
2018-08-20T04:07:12.719Z,6.90
2018-08-20T04:09:40.984Z,6.53
2018-08-20T04:12:09.286Z,6.75
2018-08-20T04:14:37.840Z,6.80
2018-08-20T04:17:06.085Z,6.50
2018-08-20T04:19:34.939Z,6.40
2018-08-20T04:22:03.682Z,6.95
2018-08-20T04:24:31.947Z,6.47
2018-08-20T04:27:00.331Z,7.35
2018-08-20T04:29:35.246Z,6.45
2018-08-20T04:32:03.538Z,6.53
2018-08-20T04:34:31.885Z,6.40
2018-08-20T04:37:00.348Z,6.40
2018-08-20T04:39:28.594Z,6.35
2018-08-20T04:41:56.914Z,6.72
2018-08-20T04:44:26.230Z,7.00
2018-08-20T04:46:54.537Z,7.20
2018-08-20T04:49:22.802Z,6.87
2018-08-20T04:51:51.116Z,6.90
2018-08-20T04:54:19.862Z,6.95
2018-08-20T04:56:48.134Z,6.90
2018-08-20T04:59:17.078Z,6.35
2018-08-20T05:01:45.722Z,6.72
2018-08-20T05:04:14.001Z,6.42
2018-08-20T05:06:42.966Z,6.55
2018-08-20T05:09:11.951Z,6.08
2018-08-20T05:11:40.225Z,6.28
2018-08-20T05:14:08.742Z,6.03
2018-08-20T05:16:37.026Z,6.83
2018-08-20T05:19:06.004Z,6.62
2018-08-20T05:21:34.278Z,6.20
2018-08-20T05:24:02.542Z,6.50
2018-08-20T05:26:30.836Z,6.15
2018-08-20T05:28:59.717Z,6.67
2018-08-20T05:31:28.037Z,6.53
2018-08-20T05:33:56.406Z,6.22
2018-08-20T05:36:24.741Z,6.47
2018-08-20T05:38:52.980Z,6.28
2018-08-20T05:41:21.347Z,7.00
2018-08-20T05:43:49.636Z,6.65
2018-08-20T05:46:17.886Z,6.28
2018-08-20T05:48:46.166Z,6.15
2018-08-20T05:51:14.620Z,6.20
2018-08-20T05:53:43.434Z,6.65
2018-08-20T05:56:12.322Z,5.92
2018-08-20T05:58:41.126Z,6.35
2018-08-20T06:01:10.185Z,5.95
2018-08-20T06:03:38.446Z,5.42
2018-08-20T06:06:07.346Z,5.80
2018-08-20T06:08:35.630Z,5.40
2018-08-20T06:11:03.906Z,5.12
2018-08-20T06:13:37.861Z,5.20
2018-08-20T06:16:06.451Z,5.55
2018-08-20T06:18:35.085Z,5.30
2018-08-20T06:21:03.386Z,5.10
2018-08-20T06:23:31.649Z,5.80
2018-08-20T06:26:00.045Z,5.30
2018-08-20T06:28:29.185Z,5.22
2018-08-20T06:30:57.415Z,5.03
2018-08-20T06:33:25.666Z,5.22
2018-08-20T06:35:53.961Z,4.78
2018-08-20T06:38:22.278Z,4.87
2018-08-20T06:40:50.752Z,4.30
2018-08-20T06:43:19.015Z,4.35
2018-08-20T06:45:47.714Z,4.37
2018-08-20T06:48:15.979Z,5.08
2018-08-20T06:50:44.231Z,4.10
2018-08-20T06:53:12.900Z,3.95
2018-08-20T06:55:42.053Z,4.65
2018-08-20T06:58:10.351Z,4.35
2018-08-20T07:00:38.604Z,4.05
2018-08-20T07:03:07.462Z,4.45
2018-08-20T07:05:36.040Z,4.25
2018-08-20T07:08:04.323Z,4.70
2018-08-20T07:10:37.976Z,4.78
2018-08-20T07:13:17.577Z,4.53
2018-08-20T07:15:46.535Z,4.50
2018-08-20T07:18:15.562Z,4.10
2018-08-20T07:20:43.835Z,3.85
2018-08-20T07:23:12.098Z,3.65
2018-08-20T07:25:40.885Z,4.03
2018-08-20T07:28:09.165Z,4.15
2018-08-20T07:30:37.506Z,3.60
2018-08-20T07:33:05.836Z,3.52
2018-08-20T07:35:34.118Z,3.62
2018-08-20T07:38:02.455Z,4.20
2018-08-20T07:40:30.767Z,3.95
2018-08-20T07:42:59.039Z,3.50
2018-08-20T07:45:27.824Z,3.65
2018-08-20T07:47:56.078Z,3.50
2018-08-20T07:50:31.588Z,3.87
2018-08-20T07:53:00.570Z,3.27
2018-08-20T07:55:28.872Z,3.70
2018-08-20T07:57:57.178Z,3.70
2018-08-20T08:00:25.458Z,3.55
2018-08-20T08:02:54.026Z,3.58
2018-08-20T08:05:22.646Z,3.30
2018-08-20T08:07:50.962Z,2.90
2018-08-20T08:10:19.202Z,3.33
2018-08-20T08:12:47.500Z,3.33
2018-08-20T08:15:16.446Z,3.02
2018-08-20T08:17:45.811Z,2.98
2018-08-20T08:20:15.782Z,2.98
2018-08-20T08:22:45.166Z,3.17
2018-08-20T08:25:13.392Z,2.70
2018-08-20T08:27:41.616Z,2.87
2018-08-20T08:30:12.239Z,2.95
2018-08-20T08:32:40.526Z,2.85
2018-08-20T08:35:09.329Z,2.92
2018-08-20T08:37:37.793Z,2.80
2018-08-20T08:40:06.316Z,2.72
2018-08-20T08:42:34.812Z,3.00
2018-08-20T08:45:03.638Z,2.70
2018-08-20T08:47:31.871Z,2.80
2018-08-20T08:50:00.125Z,2.80
2018-08-20T08:52:28.373Z,2.83
2018-08-20T08:54:57.160Z,3.35
2018-08-20T08:57:25.381Z,2.98
2018-08-20T08:59:53.642Z,2.83
2018-08-20T09:02:22.823Z,2.90
2018-08-20T09:04:51.806Z,3.05
2018-08-20T09:07:20.078Z,3.12
2018-08-20T09:09:48.364Z,3.17
2018-08-20T09:12:16.703Z,2.80
2018-08-20T09:14:45.411Z,2.90
2018-08-20T09:17:13.686Z,2.90
2018-08-20T09:19:42.322Z,2.98
2018-08-20T09:22:11.119Z,2.92
2018-08-20T09:24:39.589Z,2.95
2018-08-20T09:27:07.821Z,3.17
2018-08-20T09:29:36.208Z,2.60
2018-08-20T09:32:04.466Z,2.70
2018-08-20T09:34:32.907Z,2.95
2018-08-20T09:37:01.888Z,2.90
2018-08-20T09:39:30.690Z,2.83
2018-08-20T09:41:59.011Z,2.80
2018-08-20T09:44:27.269Z,2.40
2018-08-20T09:46:55.569Z,2.85
2018-08-20T09:49:23.815Z,2.58
2018-08-20T09:51:52.142Z,2.45
2018-08-20T09:54:21.087Z,2.80
2018-08-20T09:56:49.373Z,2.80
2018-08-20T09:59:17.615Z,2.60
2018-08-20T10:01:46.444Z,2.67
2018-08-20T10:04:14.682Z,3.30
2018-08-20T10:06:43.281Z,2.80
2018-08-20T10:09:11.510Z,2.92
2018-08-20T10:11:39.799Z,2.77
2018-08-20T10:14:08.558Z,2.92
2018-08-20T10:16:36.850Z,2.90
2018-08-20T10:19:06.515Z,2.83
2018-08-20T10:21:35.298Z,3.02
2018-08-20T10:24:03.932Z,3.17
2018-08-20T10:26:32.202Z,2.98
2018-08-20T10:29:00.517Z,2.80
2018-08-20T10:31:29.472Z,2.70
2018-08-20T10:33:58.829Z,2.80
2018-08-20T10:36:27.443Z,2.70
2018-08-20T10:38:56.128Z,2.50
2018-08-20T10:41:24.590Z,2.87
2018-08-20T10:43:53.254Z,2.45
2018-08-20T10:46:26.033Z,3.00
2018-08-20T10:48:55.678Z,2.77
2018-08-20T10:51:24.533Z,2.77
2018-08-20T10:53:53.457Z,2.90
2018-08-20T10:56:22.322Z,2.77
2018-08-20T10:58:50.704Z,2.95
2018-08-20T11:01:19.221Z,3.17
2018-08-20T11:03:48.241Z,3.02
2018-08-20T11:06:17.409Z,2.90
2018-08-20T11:08:45.680Z,3.00
2018-08-20T11:11:13.978Z,3.25
2018-08-20T11:13:42.851Z,2.92
2018-08-20T11:16:11.362Z,2.70
2018-08-20T11:18:45.992Z,3.10
2018-08-20T11:21:14.240Z,2.90
2018-08-20T11:23:43.205Z,3.00
2018-08-20T11:26:11.540Z,2.70
2018-08-20T11:28:39.778Z,2.90
2018-08-20T11:31:08.045Z,2.55
2018-08-20T11:33:36.298Z,2.50
2018-08-20T11:36:04.617Z,2.50
2018-08-20T11:38:32.890Z,2.60
2018-08-20T11:41:01.134Z,2.60
2018-08-20T11:44:53.894Z,2.60
2018-08-20T11:47:22.242Z,3.00
2018-08-20T11:49:50.538Z,2.77
2018-08-20T11:52:18.928Z,2.70
2018-08-20T11:54:48.109Z,2.75
2018-08-20T11:57:16.374Z,2.90
2018-08-20T11:59:44.612Z,2.87
2018-08-20T12:02:12.914Z,3.20
2018-08-20T12:04:41.830Z,2.90
2018-08-20T12:07:10.231Z,3.02
2018-08-20T12:09:38.486Z,3.17
2018-08-20T12:12:07.302Z,3.10
2018-08-20T12:14:36.171Z,3.25
2018-08-20T12:17:05.023Z,3.00
2018-08-20T12:19:33.613Z,3.10
2018-08-20T12:23:26.476Z,3.15
2018-08-20T12:25:54.781Z,3.20
2018-08-20T12:28:23.072Z,3.20
2018-08-20T12:30:51.492Z,3.40
2018-08-20T12:33:19.866Z,3.17
2018-08-20T12:35:48.194Z,3.22
2018-08-20T12:38:16.936Z,3.10
2018-08-20T12:40:45.226Z,3.20
2018-08-20T12:43:13.537Z,3.17
2018-08-20T12:45:41.784Z,3.05
2018-08-20T12:48:10.131Z,3.12
2018-08-20T12:50:38.374Z,2.85
2018-08-20T12:53:07.502Z,2.42
2018-08-20T12:55:35.980Z,3.00
2018-08-20T12:58:04.267Z,3.25
2018-08-20T13:00:32.749Z,2.70
2018-08-20T13:03:01.002Z,2.80
2018-08-20T13:05:29.870Z,3.02
2018-08-20T13:07:58.654Z,2.70
2018-08-20T13:10:27.497Z,2.65
2018-08-20T13:12:55.776Z,2.72
2018-08-20T13:15:24.693Z,2.60
2018-08-20T13:17:52.938Z,2.90
2018-08-20T13:20:21.757Z,2.90
2018-08-20T13:22:50.020Z,3.02
2018-08-20T13:25:18.293Z,2.90
2018-08-20T13:27:46.575Z,3.10
2018-08-20T13:30:14.812Z,2.77
2018-08-20T13:32:43.174Z,3.15
2018-08-20T13:35:11.462Z,2.92
2018-08-20T13:37:39.989Z,3.17
2018-08-20T13:40:08.267Z,3.10
2018-08-20T13:42:36.551Z,3.05
2018-08-20T13:45:04.982Z,3.17
2018-08-20T13:47:33.325Z,3.17
2018-08-20T13:50:05.852Z,3.12
2018-08-20T13:52:34.622Z,3.42
2018-08-20T13:55:03.881Z,3.45
2018-08-20T13:57:36.354Z,3.58
2018-08-20T14:00:04.783Z,3.20
2018-08-20T14:02:33.507Z,3.60
2018-08-20T14:05:02.217Z,3.77
2018-08-20T14:07:30.723Z,3.87
2018-08-20T14:09:58.973Z,3.92
2018-08-20T14:12:27.766Z,3.80
2018-08-20T14:14:56.541Z,4.60
2018-08-20T14:17:24.845Z,4.47
2018-08-20T14:19:54.103Z,4.40
2018-08-20T14:22:22.370Z,4.12
2018-08-20T14:24:50.618Z,4.40
2018-08-20T14:27:19.054Z,4.45
2018-08-20T14:29:47.349Z,4.78
2018-08-20T14:32:15.658Z,5.17
2018-08-20T14:34:43.929Z,4.92
2018-08-20T14:37:12.190Z,5.60
2018-08-20T14:39:40.471Z,4.70
2018-08-20T14:42:08.821Z,5.10
2018-08-20T14:44:37.172Z,5.22
2018-08-20T14:47:05.485Z,5.15
2018-08-20T14:49:33.773Z,5.30
2018-08-20T14:52:08.578Z,5.10
2018-08-20T14:54:37.510Z,5.42
2018-08-20T14:57:05.954Z,5.67
2018-08-20T14:59:34.230Z,5.45
2018-08-20T15:02:02.918Z,5.80
2018-08-20T15:04:34.195Z,5.97
2018-08-20T15:07:04.839Z,5.62
2018-08-20T15:09:33.137Z,6.30
2018-08-20T15:12:02.241Z,5.97
2018-08-20T15:14:30.969Z,5.65
2018-08-20T15:16:59.285Z,5.65
2018-08-20T15:19:27.980Z,5.72
2018-08-20T15:21:56.281Z,5.85
2018-08-20T15:24:24.583Z,5.70
2018-08-20T15:26:52.874Z,5.87
2018-08-20T15:29:21.258Z,5.67
2018-08-20T15:31:49.612Z,5.50
2018-08-20T15:34:17.974Z,5.47
2018-08-20T15:36:46.350Z,5.00
2018-08-20T15:39:14.688Z,5.00
2018-08-20T15:41:43.054Z,5.25
2018-08-20T15:44:17.807Z,5.65
2018-08-20T15:46:46.090Z,5.30
2018-08-20T15:49:14.410Z,5.15
2018-08-20T15:51:42.674Z,5.05
2018-08-20T15:54:11.894Z,5.03
2018-08-20T15:56:40.155Z,5.08
2018-08-20T15:59:08.421Z,5.40
2018-08-20T16:01:37.297Z,5.22
2018-08-20T16:04:05.566Z,5.60
2018-08-20T16:06:34.301Z,5.12
2018-08-20T16:09:04.070Z,5.17
2018-08-20T16:11:32.554Z,5.15
2018-08-20T16:14:01.387Z,5.35
2018-08-20T16:16:29.654Z,4.90
2018-08-20T16:18:58.242Z,5.17
2018-08-20T16:21:26.501Z,5.12
2018-08-20T16:23:55.013Z,5.22
2018-08-20T16:26:23.302Z,4.87
2018-08-20T16:28:52.578Z,5.00
2018-08-20T16:31:21.029Z,5.70
2018-08-20T16:33:49.366Z,5.60
2018-08-20T16:36:17.629Z,4.78
2018-08-20T16:38:46.570Z,5.10
2018-08-20T16:41:14.858Z,4.95
2018-08-20T16:43:43.247Z,5.28
2018-08-20T16:46:11.562Z,4.87
2018-08-20T16:48:40.246Z,5.08
2018-08-20T16:51:09.533Z,4.42
2018-08-20T16:53:38.414Z,4.30
2018-08-20T16:56:07.024Z,4.85
2018-08-20T16:58:35.398Z,4.55
2018-08-20T17:01:12.603Z,4.00
2018-08-20T17:03:40.954Z,4.12
2018-08-20T17:06:09.434Z,3.95
2018-08-20T17:08:38.692Z,4.20
2018-08-20T17:11:06.966Z,3.85
2018-08-20T17:13:39.136Z,4.00
2018-08-20T17:16:09.809Z,4.17
2018-08-20T17:18:38.581Z,4.50
2018-08-20T17:21:06.936Z,3.72
2018-08-20T17:23:36.430Z,3.83
2018-08-20T17:26:05.149Z,4.12
2018-08-20T17:28:33.430Z,4.00
2018-08-20T17:31:03.790Z,3.95
2018-08-20T17:33:33.493Z,4.53
2018-08-20T17:36:01.909Z,4.25
2018-08-20T17:38:30.192Z,4.58
2018-08-20T17:40:58.491Z,5.17
2018-08-20T17:43:26.869Z,4.47
2018-08-20T17:45:56.221Z,5.08
2018-08-20T17:48:30.594Z,4.83
2018-08-20T17:50:59.045Z,5.08
2018-08-20T17:53:40.351Z,5.22
2018-08-20T17:56:09.169Z,5.65
2018-08-20T17:58:37.488Z,5.28
2018-08-20T18:01:05.835Z,5.42
2018-08-20T18:03:35.343Z,5.80
2018-08-20T18:06:05.739Z,6.17
2018-08-20T18:08:35.274Z,5.90
2018-08-20T18:11:04.130Z,5.95
2018-08-20T18:13:45.405Z,6.08
2018-08-20T18:16:22.052Z,6.62
2018-08-20T18:18:51.967Z,6.30
2018-08-20T18:21:20.411Z,6.20
2018-08-20T18:23:49.144Z,6.15
2018-08-20T18:26:17.482Z,5.97
2018-08-20T18:28:51.877Z,6.80
2018-08-20T18:31:27.810Z,6.22
2018-08-20T18:33:56.246Z,6.85
2018-08-20T18:36:27.495Z,6.28
2018-08-20T18:38:58.519Z,6.60
2018-08-20T18:41:50.278Z,6.25
2018-08-20T18:44:18.850Z,6.50
2018-08-20T18:46:47.308Z,6.60
2018-08-20T18:49:15.766Z,6.45
2018-08-20T18:51:44.194Z,6.33
2018-08-20T18:54:12.947Z,6.35
2018-08-20T18:56:42.270Z,6.80
2018-08-20T18:59:10.540Z,6.08
2018-08-20T19:01:38.867Z,6.42
2018-08-20T19:04:07.522Z,6.45
2018-08-20T19:06:36.368Z,6.58
2018-08-20T19:09:05.742Z,6.60
2018-08-20T19:11:34.642Z,6.83
2018-08-20T19:14:08.403Z,6.67
2018-08-20T19:16:37.726Z,6.20
2018-08-20T19:19:07.450Z,6.45
2018-08-20T19:21:37.701Z,6.70
2018-08-20T19:24:07.203Z,6.50
2018-08-20T19:26:35.659Z,6.75
2018-08-20T19:29:28.307Z,6.12
2018-08-20T19:31:56.694Z,6.87
2018-08-20T19:34:25.110Z,6.87
2018-08-20T19:36:53.440Z,6.97
2018-08-20T19:39:21.786Z,6.80
2018-08-20T19:41:50.061Z,7.08
2018-08-20T19:44:18.443Z,6.72
2018-08-20T19:46:47.119Z,6.55
2018-08-20T19:49:15.949Z,6.30
2018-08-20T19:51:45.249Z,6.05
2018-08-20T19:54:15.593Z,6.40
2018-08-20T19:56:44.380Z,6.60
2018-08-20T19:59:13.208Z,7.03
2018-08-20T20:01:41.558Z,6.83
2018-08-20T20:04:14.263Z,6.95
2018-08-20T20:06:43.477Z,6.80
2018-08-20T20:09:17.463Z,6.45
2018-08-20T20:11:48.577Z,6.30
2018-08-20T20:14:17.361Z,6.30
2018-08-20T20:16:51.476Z,6.33
2018-08-20T20:19:20.379Z,6.05
2018-08-20T20:21:48.733Z,6.70
2018-08-20T20:24:17.378Z,6.78
2018-08-20T20:26:45.677Z,6.30
2018-08-20T20:29:14.116Z,6.65
2018-08-20T20:31:43.043Z,6.15
2018-08-20T20:34:11.356Z,5.87
2018-08-20T20:36:39.730Z,5.95
2018-08-20T20:39:10.071Z,6.12
2018-08-20T20:41:38.937Z,6.55
2018-08-20T20:44:07.742Z,6.10
2018-08-20T20:46:36.189Z,6.30
2018-08-20T20:49:04.594Z,6.12
2018-08-20T20:51:33.577Z,6.00
2018-08-20T20:54:02.686Z,6.00
2018-08-20T20:56:30.973Z,5.83
2018-08-20T20:58:59.278Z,6.12
2018-08-20T21:01:28.013Z,5.67
2018-08-20T21:03:56.303Z,6.30
2018-08-20T21:06:25.280Z,6.03
2018-08-20T21:08:54.066Z,6.10
2018-08-20T21:11:23.041Z,5.53
2018-08-20T21:13:51.707Z,6.03
2018-08-20T21:16:22.795Z,6.05
2018-08-20T21:18:52.975Z,6.22
2018-08-20T21:21:21.766Z,6.47
2018-08-20T21:23:50.351Z,5.60
2018-08-20T21:26:18.740Z,6.30
2018-08-20T21:28:48.791Z,6.20
2018-08-20T21:31:18.223Z,5.97
2018-08-20T21:33:46.811Z,5.97
2018-08-20T21:36:15.530Z,5.92
2018-08-20T21:38:44.148Z,6.10
2018-08-20T21:41:12.398Z,6.03
2018-08-20T21:43:46.822Z,6.10
2018-08-20T21:46:16.610Z,6.00
2018-08-20T21:48:45.769Z,5.70
2018-08-20T21:51:19.833Z,5.78
2018-08-20T21:53:48.969Z,5.70
2018-08-20T21:56:17.602Z,5.45
2018-08-20T21:58:49.792Z,5.62
2018-08-20T22:01:19.664Z,5.72
2018-08-20T22:03:47.884Z,5.62
2018-08-20T22:06:16.628Z,5.78
2018-08-20T22:08:44.884Z,5.58
2018-08-20T22:11:13.143Z,5.67
2018-08-20T22:13:41.753Z,5.37
2018-08-20T22:16:15.179Z,5.42
2018-08-20T22:18:45.477Z,5.65
2018-08-20T22:21:14.989Z,5.80
2018-08-20T22:23:44.327Z,5.35
2018-08-20T22:26:14.919Z,5.20
2018-08-20T22:28:43.319Z,6.05
2018-08-20T22:31:11.740Z,6.37
2018-08-20T22:33:40.114Z,6.03
2018-08-20T22:36:09.923Z,6.15
2018-08-20T22:38:42.409Z,6.55
2018-08-20T22:41:10.655Z,6.45
2018-08-20T22:43:40.357Z,6.50
2018-08-20T22:46:08.658Z,6.37
2018-08-20T22:48:36.947Z,6.90
2018-08-20T22:51:10.806Z,6.37
2018-08-20T22:53:39.478Z,6.17
2018-08-20T22:56:11.606Z,6.03
2018-08-20T23:01:04.490Z,6.80
2018-08-20T23:03:32.760Z,6.28
2018-08-20T23:06:01.677Z,6.58
2018-08-20T23:08:32.300Z,6.80
2018-08-20T23:11:00.597Z,6.60
2018-08-20T23:13:28.957Z,6.95
2018-08-20T23:15:57.781Z,7.20
2018-08-20T23:18:26.478Z,6.92
2018-08-20T23:20:54.811Z,7.33
2018-08-20T23:23:27.550Z,7.12
2018-08-20T23:26:11.341Z,7.40
2018-08-20T23:28:40.834Z,7.03
2018-08-20T23:31:09.157Z,7.37
2018-08-20T23:33:38.361Z,6.80
2018-08-20T23:36:06.946Z,7.45
2018-08-20T23:38:35.659Z,7.42
2018-08-20T23:41:04.137Z,8.13
2018-08-20T23:43:33.102Z,7.37
2018-08-20T23:46:01.386Z,7.40
2018-08-20T23:48:29.717Z,7.53
2018-08-20T23:51:04.232Z,7.53
2018-08-20T23:53:32.970Z,7.92
2018-08-20T23:56:01.254Z,7.58
2018-08-20T23:58:30.191Z,8.45
